sensor_id;sensor_type;location;lat;lon;timestamp;P1;durP1;ratioP1;P2;durP2;ratioP2
12956;SDS011;6543;48.836;10.092;2022-10-26T00:02:10;3.33;;;1.30;;
12956;SDS011;6543;48.836;10.092;2022-10-26T00:04:37;4.23;;;1.63;;
12956;SDS011;6543;48.836;10.092;2022-10-26T00:07:04;3.43;;;1.63;;
12956;SDS011;6543;48.836;10.092;2022-10-26T00:09:30;5.83;;;1.63;;
12956;SDS011;6543;48.836;10.092;2022-10-26T00:11:57;7.80;;;1.57;;
12956;SDS011;6543;48.836;10.092;2022-10-26T00:14:25;5.50;;;1.90;;
12956;SDS011;6543;48.836;10.092;2022-10-26T00:16:52;10.20;;;2.23;;
12956;SDS011;6543;48.836;10.092;2022-10-26T00:19:20;7.23;;;1.93;;
12956;SDS011;6543;48.836;10.092;2022-10-26T00:21:47;10.93;;;2.13;;
12956;SDS011;6543;48.836;10.092;2022-10-26T00:24:14;7.90;;;2.40;;
12956;SDS011;6543;48.836;10.092;2022-10-26T00:26:40;6.87;;;1.80;;
12956;SDS011;6543;48.836;10.092;2022-10-26T00:29:08;6.43;;;1.70;;
12956;SDS011;6543;48.836;10.092;2022-10-26T00:31:36;6.97;;;1.70;;
12956;SDS011;6543;48.836;10.092;2022-10-26T00:34:03;3.03;;;1.80;;
12956;SDS011;6543;48.836;10.092;2022-10-26T00:36:32;4.80;;;1.90;;
12956;SDS011;6543;48.836;10.092;2022-10-26T00:38:59;7.30;;;1.83;;
12956;SDS011;6543;48.836;10.092;2022-10-26T00:41:28;4.50;;;1.60;;
12956;SDS011;6543;48.836;10.092;2022-10-26T00:43:56;1.80;;;1.40;;
12956;SDS011;6543;48.836;10.092;2022-10-26T00:46:24;7.33;;;1.50;;
12956;SDS011;6543;48.836;10.092;2022-10-26T00:48:54;6.80;;;1.70;;
12956;SDS011;6543;48.836;10.092;2022-10-26T00:51:24;4.60;;;2.03;;
12956;SDS011;6543;48.836;10.092;2022-10-26T00:53:57;6.63;;;1.73;;
12956;SDS011;6543;48.836;10.092;2022-10-26T00:56:26;4.20;;;1.50;;
12956;SDS011;6543;48.836;10.092;2022-10-26T00:58:53;6.63;;;1.43;;
12956;SDS011;6543;48.836;10.092;2022-10-26T01:01:22;9.20;;;1.80;;
12956;SDS011;6543;48.836;10.092;2022-10-26T01:03:48;10.80;;;1.90;;
12956;SDS011;6543;48.836;10.092;2022-10-26T01:06:15;4.07;;;1.30;;
12956;SDS011;6543;48.836;10.092;2022-10-26T01:08:42;7.57;;;1.60;;
12956;SDS011;6543;48.836;10.092;2022-10-26T01:11:11;4.43;;;1.57;;
12956;SDS011;6543;48.836;10.092;2022-10-26T01:13:38;4.37;;;1.60;;
12956;SDS011;6543;48.836;10.092;2022-10-26T01:16:11;7.77;;;2.53;;
12956;SDS011;6543;48.836;10.092;2022-10-26T01:18:52;7.30;;;1.70;;
12956;SDS011;6543;48.836;10.092;2022-10-26T01:27:27;5.23;;;1.23;;
12956;SDS011;6543;48.836;10.092;2022-10-26T01:30:09;4.90;;;1.70;;
12956;SDS011;6543;48.836;10.092;2022-10-26T01:32:43;4.77;;;1.53;;
12956;SDS011;6543;48.836;10.092;2022-10-26T01:35:17;8.40;;;2.00;;
12956;SDS011;6543;48.836;10.092;2022-10-26T01:37:49;2.77;;;1.57;;
12956;SDS011;6543;48.836;10.092;2022-10-26T01:40:21;3.57;;;1.43;;
12956;SDS011;6543;48.836;10.092;2022-10-26T01:42:54;5.20;;;1.53;;
12956;SDS011;6543;48.836;10.092;2022-10-26T01:45:25;4.60;;;1.57;;
12956;SDS011;6543;48.836;10.092;2022-10-26T01:47:54;8.13;;;1.77;;
12956;SDS011;6543;48.836;10.092;2022-10-26T01:50:24;7.93;;;2.00;;
12956;SDS011;6543;48.836;10.092;2022-10-26T01:52:52;12.97;;;2.00;;
12956;SDS011;6543;48.836;10.092;2022-10-26T01:58:09;8.27;;;1.80;;
12956;SDS011;6543;48.836;10.092;2022-10-26T02:00:49;4.30;;;2.10;;
12956;SDS011;6543;48.836;10.092;2022-10-26T02:03:24;8.20;;;1.90;;
12956;SDS011;6543;48.836;10.092;2022-10-26T02:06:01;5.73;;;1.80;;
12956;SDS011;6543;48.836;10.092;2022-10-26T02:08:42;5.43;;;1.50;;
12956;SDS011;6543;48.836;10.092;2022-10-26T02:11:23;3.97;;;1.40;;
12956;SDS011;6543;48.836;10.092;2022-10-26T02:14:00;5.60;;;1.47;;
12956;SDS011;6543;48.836;10.092;2022-10-26T02:16:35;6.67;;;1.67;;
12956;SDS011;6543;48.836;10.092;2022-10-26T02:19:09;5.63;;;1.43;;
12956;SDS011;6543;48.836;10.092;2022-10-26T02:21:47;4.43;;;1.70;;
12956;SDS011;6543;48.836;10.092;2022-10-26T02:24:19;8.10;;;1.80;;
12956;SDS011;6543;48.836;10.092;2022-10-26T02:26:48;11.30;;;1.93;;
12956;SDS011;6543;48.836;10.092;2022-10-26T02:29:18;4.07;;;1.57;;
12956;SDS011;6543;48.836;10.092;2022-10-26T02:31:48;5.90;;;1.80;;
12956;SDS011;6543;48.836;10.092;2022-10-26T02:34:17;6.10;;;1.87;;
12956;SDS011;6543;48.836;10.092;2022-10-26T02:36:47;5.37;;;1.60;;
12956;SDS011;6543;48.836;10.092;2022-10-26T02:39:16;13.13;;;1.73;;
12956;SDS011;6543;48.836;10.092;2022-10-26T02:41:44;5.10;;;1.60;;
12956;SDS011;6543;48.836;10.092;2022-10-26T02:44:13;5.93;;;1.80;;
12956;SDS011;6543;48.836;10.092;2022-10-26T02:46:47;4.93;;;1.63;;
12956;SDS011;6543;48.836;10.092;2022-10-26T02:49:15;4.33;;;1.30;;
12956;SDS011;6543;48.836;10.092;2022-10-26T02:51:44;8.10;;;1.60;;
12956;SDS011;6543;48.836;10.092;2022-10-26T02:54:15;4.40;;;1.80;;
12956;SDS011;6543;48.836;10.092;2022-10-26T02:56:47;5.67;;;2.03;;
12956;SDS011;6543;48.836;10.092;2022-10-26T02:59:19;4.57;;;2.03;;
12956;SDS011;6543;48.836;10.092;2022-10-26T03:01:50;4.47;;;1.80;;
12956;SDS011;6543;48.836;10.092;2022-10-26T03:04:18;4.40;;;1.53;;
12956;SDS011;6543;48.836;10.092;2022-10-26T03:06:50;6.10;;;1.90;;
12956;SDS011;6543;48.836;10.092;2022-10-26T03:09:18;6.40;;;2.20;;
12956;SDS011;6543;48.836;10.092;2022-10-26T03:11:44;5.17;;;2.03;;
12956;SDS011;6543;48.836;10.092;2022-10-26T03:14:11;4.60;;;1.80;;
12956;SDS011;6543;48.836;10.092;2022-10-26T03:16:38;5.20;;;1.97;;
12956;SDS011;6543;48.836;10.092;2022-10-26T03:19:06;7.77;;;2.10;;
12956;SDS011;6543;48.836;10.092;2022-10-26T03:21:34;3.77;;;1.70;;
12956;SDS011;6543;48.836;10.092;2022-10-26T03:24:00;9.63;;;1.67;;
12956;SDS011;6543;48.836;10.092;2022-10-26T03:26:27;9.20;;;1.77;;
12956;SDS011;6543;48.836;10.092;2022-10-26T03:28:54;5.87;;;1.77;;
12956;SDS011;6543;48.836;10.092;2022-10-26T03:31:21;6.20;;;1.97;;
12956;SDS011;6543;48.836;10.092;2022-10-26T03:33:48;3.53;;;2.03;;
12956;SDS011;6543;48.836;10.092;2022-10-26T03:36:16;6.03;;;1.70;;
12956;SDS011;6543;48.836;10.092;2022-10-26T03:38:43;8.70;;;2.07;;
12956;SDS011;6543;48.836;10.092;2022-10-26T03:41:09;4.47;;;1.77;;
12956;SDS011;6543;48.836;10.092;2022-10-26T03:43:36;11.73;;;1.70;;
12956;SDS011;6543;48.836;10.092;2022-10-26T03:46:03;5.13;;;2.20;;
12956;SDS011;6543;48.836;10.092;2022-10-26T03:48:30;7.23;;;1.97;;
12956;SDS011;6543;48.836;10.092;2022-10-26T03:50:57;9.60;;;2.30;;
12956;SDS011;6543;48.836;10.092;2022-10-26T03:53:25;6.97;;;1.87;;
12956;SDS011;6543;48.836;10.092;2022-10-26T03:55:52;9.40;;;2.20;;
12956;SDS011;6543;48.836;10.092;2022-10-26T03:58:19;7.90;;;2.93;;
12956;SDS011;6543;48.836;10.092;2022-10-26T04:00:46;4.00;;;2.20;;
12956;SDS011;6543;48.836;10.092;2022-10-26T04:03:13;6.03;;;2.53;;
12956;SDS011;6543;48.836;10.092;2022-10-26T04:05:40;8.80;;;2.10;;
12956;SDS011;6543;48.836;10.092;2022-10-26T04:08:07;9.20;;;2.27;;
12956;SDS011;6543;48.836;10.092;2022-10-26T04:10:35;5.90;;;2.27;;
12956;SDS011;6543;48.836;10.092;2022-10-26T04:13:02;7.63;;;2.27;;
12956;SDS011;6543;48.836;10.092;2022-10-26T04:15:29;9.03;;;2.00;;
12956;SDS011;6543;48.836;10.092;2022-10-26T04:17:56;6.33;;;2.37;;
12956;SDS011;6543;48.836;10.092;2022-10-26T04:20:24;6.40;;;2.50;;
12956;SDS011;6543;48.836;10.092;2022-10-26T04:22:56;12.27;;;3.17;;
12956;SDS011;6543;48.836;10.092;2022-10-26T04:25:24;7.77;;;2.33;;
12956;SDS011;6543;48.836;10.092;2022-10-26T04:27:52;6.10;;;2.13;;
12956;SDS011;6543;48.836;10.092;2022-10-26T04:30:19;10.00;;;2.40;;
12956;SDS011;6543;48.836;10.092;2022-10-26T04:32:46;4.17;;;2.23;;
12956;SDS011;6543;48.836;10.092;2022-10-26T04:35:13;5.57;;;2.00;;
12956;SDS011;6543;48.836;10.092;2022-10-26T04:37:40;6.77;;;1.70;;
12956;SDS011;6543;48.836;10.092;2022-10-26T04:40:07;4.00;;;2.03;;
12956;SDS011;6543;48.836;10.092;2022-10-26T04:42:41;3.60;;;1.70;;
12956;SDS011;6543;48.836;10.092;2022-10-26T04:45:10;2.23;;;1.27;;
12956;SDS011;6543;48.836;10.092;2022-10-26T04:47:38;3.73;;;1.60;;
12956;SDS011;6543;48.836;10.092;2022-10-26T04:50:06;5.50;;;1.87;;
12956;SDS011;6543;48.836;10.092;2022-10-26T04:52:33;5.27;;;2.03;;
12956;SDS011;6543;48.836;10.092;2022-10-26T04:55:00;7.77;;;2.10;;
12956;SDS011;6543;48.836;10.092;2022-10-26T04:57:30;3.93;;;2.17;;
12956;SDS011;6543;48.836;10.092;2022-10-26T04:59:57;6.37;;;2.23;;
12956;SDS011;6543;48.836;10.092;2022-10-26T05:02:25;4.53;;;2.03;;
12956;SDS011;6543;48.836;10.092;2022-10-26T05:04:52;8.07;;;2.50;;
12956;SDS011;6543;48.836;10.092;2022-10-26T05:07:19;6.40;;;2.30;;
12956;SDS011;6543;48.836;10.092;2022-10-26T05:09:46;8.80;;;2.40;;
12956;SDS011;6543;48.836;10.092;2022-10-26T05:12:13;6.03;;;1.90;;
12956;SDS011;6543;48.836;10.092;2022-10-26T05:14:40;6.63;;;2.63;;
12956;SDS011;6543;48.836;10.092;2022-10-26T05:17:06;5.10;;;2.87;;
12956;SDS011;6543;48.836;10.092;2022-10-26T05:19:35;8.50;;;2.73;;
12956;SDS011;6543;48.836;10.092;2022-10-26T05:22:01;7.40;;;2.90;;
12956;SDS011;6543;48.836;10.092;2022-10-26T05:24:28;8.30;;;3.97;;
12956;SDS011;6543;48.836;10.092;2022-10-26T05:26:55;7.33;;;3.43;;
12956;SDS011;6543;48.836;10.092;2022-10-26T05:29:22;5.77;;;2.77;;
12956;SDS011;6543;48.836;10.092;2022-10-26T05:31:49;10.87;;;3.43;;
12956;SDS011;6543;48.836;10.092;2022-10-26T05:34:16;10.50;;;3.70;;
12956;SDS011;6543;48.836;10.092;2022-10-26T05:36:44;5.60;;;3.00;;
12956;SDS011;6543;48.836;10.092;2022-10-26T05:39:11;8.80;;;2.77;;
12956;SDS011;6543;48.836;10.092;2022-10-26T05:41:38;5.23;;;2.57;;
12956;SDS011;6543;48.836;10.092;2022-10-26T05:44:05;10.80;;;2.80;;
12956;SDS011;6543;48.836;10.092;2022-10-26T05:46:31;5.63;;;3.20;;
12956;SDS011;6543;48.836;10.092;2022-10-26T05:48:58;7.53;;;4.03;;
12956;SDS011;6543;48.836;10.092;2022-10-26T05:51:25;9.13;;;3.30;;
12956;SDS011;6543;48.836;10.092;2022-10-26T05:53:53;12.97;;;3.23;;
12956;SDS011;6543;48.836;10.092;2022-10-26T05:56:28;4.80;;;2.90;;
12956;SDS011;6543;48.836;10.092;2022-10-26T05:59:00;12.93;;;3.50;;
12956;SDS011;6543;48.836;10.092;2022-10-26T06:01:29;5.83;;;3.87;;
12956;SDS011;6543;48.836;10.092;2022-10-26T06:04:06;6.90;;;3.50;;
12956;SDS011;6543;48.836;10.092;2022-10-26T06:06:41;4.50;;;2.80;;
12956;SDS011;6543;48.836;10.092;2022-10-26T06:09:12;8.97;;;3.13;;
12956;SDS011;6543;48.836;10.092;2022-10-26T06:11:40;8.40;;;4.30;;
12956;SDS011;6543;48.836;10.092;2022-10-26T06:14:07;6.90;;;3.30;;
12956;SDS011;6543;48.836;10.092;2022-10-26T06:16:38;8.07;;;3.73;;
12956;SDS011;6543;48.836;10.092;2022-10-26T06:19:18;12.50;;;3.47;;
12956;SDS011;6543;48.836;10.092;2022-10-26T06:21:57;6.87;;;3.00;;
12956;SDS011;6543;48.836;10.092;2022-10-26T06:24:39;5.63;;;3.00;;
12956;SDS011;6543;48.836;10.092;2022-10-26T06:27:15;5.90;;;3.37;;
12956;SDS011;6543;48.836;10.092;2022-10-26T06:29:53;8.13;;;3.10;;
12956;SDS011;6543;48.836;10.092;2022-10-26T06:32:24;7.53;;;3.40;;
12956;SDS011;6543;48.836;10.092;2022-10-26T06:34:52;4.73;;;3.00;;
12956;SDS011;6543;48.836;10.092;2022-10-26T06:37:27;4.70;;;2.87;;
12956;SDS011;6543;48.836;10.092;2022-10-26T06:39:55;9.70;;;2.70;;
12956;SDS011;6543;48.836;10.092;2022-10-26T06:42:23;24.97;;;7.67;;
12956;SDS011;6543;48.836;10.092;2022-10-26T06:44:51;5.03;;;2.30;;
12956;SDS011;6543;48.836;10.092;2022-10-26T06:47:19;4.20;;;2.67;;
12956;SDS011;6543;48.836;10.092;2022-10-26T06:49:56;7.90;;;3.57;;
12956;SDS011;6543;48.836;10.092;2022-10-26T06:52:28;9.47;;;3.00;;
12956;SDS011;6543;48.836;10.092;2022-10-26T06:55:02;10.07;;;2.47;;
12956;SDS011;6543;48.836;10.092;2022-10-26T06:57:31;5.60;;;2.63;;
12956;SDS011;6543;48.836;10.092;2022-10-26T07:00:01;7.53;;;3.47;;
12956;SDS011;6543;48.836;10.092;2022-10-26T07:02:30;8.33;;;3.43;;
12956;SDS011;6543;48.836;10.092;2022-10-26T07:04:57;7.90;;;3.30;;
12956;SDS011;6543;48.836;10.092;2022-10-26T07:07:24;6.20;;;3.43;;
12956;SDS011;6543;48.836;10.092;2022-10-26T07:09:54;10.47;;;3.20;;
12956;SDS011;6543;48.836;10.092;2022-10-26T07:12:22;4.40;;;2.80;;
12956;SDS011;6543;48.836;10.092;2022-10-26T07:14:49;8.23;;;4.50;;
12956;SDS011;6543;48.836;10.092;2022-10-26T07:17:16;9.63;;;3.33;;
12956;SDS011;6543;48.836;10.092;2022-10-26T07:19:42;4.97;;;2.57;;
12956;SDS011;6543;48.836;10.092;2022-10-26T07:22:09;7.93;;;2.77;;
12956;SDS011;6543;48.836;10.092;2022-10-26T07:24:36;7.73;;;3.03;;
12956;SDS011;6543;48.836;10.092;2022-10-26T07:27:03;6.53;;;3.23;;
12956;SDS011;6543;48.836;10.092;2022-10-26T07:29:31;7.10;;;3.03;;
12956;SDS011;6543;48.836;10.092;2022-10-26T07:31:59;8.17;;;3.50;;
12956;SDS011;6543;48.836;10.092;2022-10-26T07:34:26;8.50;;;3.60;;
12956;SDS011;6543;48.836;10.092;2022-10-26T07:36:52;10.13;;;3.23;;
12956;SDS011;6543;48.836;10.092;2022-10-26T07:39:19;5.23;;;3.00;;
12956;SDS011;6543;48.836;10.092;2022-10-26T07:41:46;8.00;;;3.20;;
12956;SDS011;6543;48.836;10.092;2022-10-26T07:44:13;4.93;;;3.03;;
12956;SDS011;6543;48.836;10.092;2022-10-26T07:46:41;10.87;;;3.23;;
12956;SDS011;6543;48.836;10.092;2022-10-26T07:49:08;5.37;;;3.40;;
12956;SDS011;6543;48.836;10.092;2022-10-26T07:51:35;10.13;;;3.57;;
12956;SDS011;6543;48.836;10.092;2022-10-26T07:54:02;10.73;;;5.50;;
12956;SDS011;6543;48.836;10.092;2022-10-26T07:56:29;8.63;;;3.80;;
12956;SDS011;6543;48.836;10.092;2022-10-26T07:58:56;8.60;;;3.73;;
12956;SDS011;6543;48.836;10.092;2022-10-26T08:01:23;12.03;;;3.87;;
12956;SDS011;6543;48.836;10.092;2022-10-26T08:03:52;9.40;;;4.17;;
12956;SDS011;6543;48.836;10.092;2022-10-26T08:06:19;11.50;;;4.10;;
12956;SDS011;6543;48.836;10.092;2022-10-26T08:08:46;5.50;;;3.30;;
12956;SDS011;6543;48.836;10.092;2022-10-26T08:11:13;7.67;;;3.63;;
12956;SDS011;6543;48.836;10.092;2022-10-26T08:13:41;7.10;;;3.47;;
12956;SDS011;6543;48.836;10.092;2022-10-26T08:16:08;7.60;;;3.63;;
12956;SDS011;6543;48.836;10.092;2022-10-26T08:18:35;4.60;;;3.20;;
12956;SDS011;6543;48.836;10.092;2022-10-26T08:21:04;5.33;;;3.13;;
12956;SDS011;6543;48.836;10.092;2022-10-26T08:23:32;8.17;;;3.77;;
12956;SDS011;6543;48.836;10.092;2022-10-26T08:25:59;12.97;;;4.00;;
12956;SDS011;6543;48.836;10.092;2022-10-26T08:28:27;7.60;;;3.57;;
12956;SDS011;6543;48.836;10.092;2022-10-26T08:30:55;12.17;;;4.07;;
12956;SDS011;6543;48.836;10.092;2022-10-26T08:33:22;8.23;;;3.43;;
12956;SDS011;6543;48.836;10.092;2022-10-26T08:35:53;6.10;;;3.57;;
12956;SDS011;6543;48.836;10.092;2022-10-26T08:38:22;3.87;;;3.40;;
12956;SDS011;6543;48.836;10.092;2022-10-26T08:40:49;6.87;;;3.23;;
12956;SDS011;6543;48.836;10.092;2022-10-26T08:43:18;8.33;;;3.50;;
12956;SDS011;6543;48.836;10.092;2022-10-26T08:45:49;9.80;;;3.67;;
12956;SDS011;6543;48.836;10.092;2022-10-26T08:48:21;10.73;;;4.07;;
12956;SDS011;6543;48.836;10.092;2022-10-26T08:50:53;8.17;;;3.80;;
12956;SDS011;6543;48.836;10.092;2022-10-26T08:53:25;8.10;;;3.80;;
12956;SDS011;6543;48.836;10.092;2022-10-26T08:55:58;7.90;;;3.10;;
12956;SDS011;6543;48.836;10.092;2022-10-26T08:58:29;6.43;;;3.73;;
12956;SDS011;6543;48.836;10.092;2022-10-26T09:01:02;11.10;;;3.53;;
12956;SDS011;6543;48.836;10.092;2022-10-26T09:03:29;11.57;;;3.90;;
12956;SDS011;6543;48.836;10.092;2022-10-26T09:06:04;9.10;;;3.50;;
12956;SDS011;6543;48.836;10.092;2022-10-26T09:08:43;7.33;;;3.50;;
12956;SDS011;6543;48.836;10.092;2022-10-26T09:11:21;6.83;;;3.60;;
12956;SDS011;6543;48.836;10.092;2022-10-26T09:14:00;5.00;;;2.83;;
12956;SDS011;6543;48.836;10.092;2022-10-26T09:16:37;7.70;;;3.60;;
12956;SDS011;6543;48.836;10.092;2022-10-26T09:19:25;9.50;;;3.27;;
12956;SDS011;6543;48.836;10.092;2022-10-26T09:22:06;7.50;;;2.73;;
12956;SDS011;6543;48.836;10.092;2022-10-26T09:24:40;6.33;;;3.30;;
12956;SDS011;6543;48.836;10.092;2022-10-26T09:27:16;6.10;;;3.27;;
12956;SDS011;6543;48.836;10.092;2022-10-26T09:29:49;8.00;;;4.00;;
12956;SDS011;6543;48.836;10.092;2022-10-26T09:32:18;7.93;;;4.23;;
12956;SDS011;6543;48.836;10.092;2022-10-26T09:34:47;12.03;;;5.23;;
12956;SDS011;6543;48.836;10.092;2022-10-26T09:37:17;9.37;;;4.13;;
12956;SDS011;6543;48.836;10.092;2022-10-26T09:39:50;7.37;;;3.47;;
12956;SDS011;6543;48.836;10.092;2022-10-26T09:42:24;10.53;;;4.40;;
12956;SDS011;6543;48.836;10.092;2022-10-26T09:44:56;17.03;;;4.77;;
12956;SDS011;6543;48.836;10.092;2022-10-26T09:47:29;11.30;;;3.97;;
12956;SDS011;6543;48.836;10.092;2022-10-26T09:50:01;14.70;;;4.40;;
12956;SDS011;6543;48.836;10.092;2022-10-26T09:52:40;13.10;;;4.60;;
12956;SDS011;6543;48.836;10.092;2022-10-26T09:55:10;8.87;;;4.53;;
12956;SDS011;6543;48.836;10.092;2022-10-26T09:57:38;11.03;;;4.73;;
12956;SDS011;6543;48.836;10.092;2022-10-26T10:00:11;7.47;;;4.37;;
12956;SDS011;6543;48.836;10.092;2022-10-26T10:02:40;16.13;;;3.83;;
12956;SDS011;6543;48.836;10.092;2022-10-26T10:05:22;15.43;;;5.23;;
12956;SDS011;6543;48.836;10.092;2022-10-26T10:07:50;11.70;;;4.20;;
12956;SDS011;6543;48.836;10.092;2022-10-26T10:10:20;5.97;;;3.30;;
12956;SDS011;6543;48.836;10.092;2022-10-26T10:12:49;9.10;;;3.57;;
12956;SDS011;6543;48.836;10.092;2022-10-26T10:15:18;9.73;;;4.40;;
12956;SDS011;6543;48.836;10.092;2022-10-26T10:17:47;10.47;;;4.97;;
12956;SDS011;6543;48.836;10.092;2022-10-26T10:20:18;12.47;;;4.67;;
12956;SDS011;6543;48.836;10.092;2022-10-26T10:22:54;12.50;;;4.07;;
12956;SDS011;6543;48.836;10.092;2022-10-26T10:25:26;11.57;;;4.70;;
12956;SDS011;6543;48.836;10.092;2022-10-26T10:28:00;10.10;;;4.57;;
12956;SDS011;6543;48.836;10.092;2022-10-26T10:30:29;12.70;;;4.70;;
12956;SDS011;6543;48.836;10.092;2022-10-26T10:33:04;6.80;;;3.83;;
12956;SDS011;6543;48.836;10.092;2022-10-26T10:35:32;10.47;;;3.67;;
12956;SDS011;6543;48.836;10.092;2022-10-26T10:37:59;9.88;;;2.90;;
12956;SDS011;6543;48.836;10.092;2022-10-26T10:40:28;9.27;;;2.60;;
12956;SDS011;6543;48.836;10.092;2022-10-26T10:43:03;10.40;;;2.70;;
12956;SDS011;6543;48.836;10.092;2022-10-26T10:45:36;5.95;;;2.60;;
12956;SDS011;6543;48.836;10.092;2022-10-26T10:48:04;4.97;;;2.60;;
12956;SDS011;6543;48.836;10.092;2022-10-26T10:50:49;7.17;;;2.37;;
12956;SDS011;6543;48.836;10.092;2022-10-26T10:53:18;7.43;;;2.50;;
12956;SDS011;6543;48.836;10.092;2022-10-26T10:56:00;8.87;;;2.33;;
12956;SDS011;6543;48.836;10.092;2022-10-26T10:58:36;6.43;;;2.50;;
12956;SDS011;6543;48.836;10.092;2022-10-26T11:01:11;8.50;;;2.83;;
12956;SDS011;6543;48.836;10.092;2022-10-26T11:03:42;7.27;;;2.47;;
12956;SDS011;6543;48.836;10.092;2022-10-26T11:06:16;6.03;;;2.50;;
12956;SDS011;6543;48.836;10.092;2022-10-26T11:08:46;10.03;;;3.07;;
12956;SDS011;6543;48.836;10.092;2022-10-26T11:11:19;7.47;;;2.83;;
12956;SDS011;6543;48.836;10.092;2022-10-26T11:13:51;7.13;;;2.50;;
12956;SDS011;6543;48.836;10.092;2022-10-26T11:16:22;4.30;;;1.97;;
12956;SDS011;6543;48.836;10.092;2022-10-26T11:18:53;7.67;;;2.37;;
12956;SDS011;6543;48.836;10.092;2022-10-26T11:21:25;11.17;;;2.83;;
12956;SDS011;6543;48.836;10.092;2022-10-26T11:24:00;3.57;;;1.77;;
12956;SDS011;6543;48.836;10.092;2022-10-26T11:26:40;5.67;;;2.30;;
12956;SDS011;6543;48.836;10.092;2022-10-26T11:29:15;6.03;;;1.77;;
12956;SDS011;6543;48.836;10.092;2022-10-26T11:31:46;11.10;;;3.07;;
12956;SDS011;6543;48.836;10.092;2022-10-26T11:34:20;5.27;;;2.30;;
12956;SDS011;6543;48.836;10.092;2022-10-26T11:36:54;5.00;;;2.10;;
12956;SDS011;6543;48.836;10.092;2022-10-26T11:39:27;7.07;;;2.40;;
12956;SDS011;6543;48.836;10.092;2022-10-26T11:42:04;6.73;;;2.43;;
12956;SDS011;6543;48.836;10.092;2022-10-26T11:44:37;5.33;;;1.97;;
12956;SDS011;6543;48.836;10.092;2022-10-26T11:47:10;4.27;;;1.80;;
12956;SDS011;6543;48.836;10.092;2022-10-26T11:49:41;8.30;;;2.10;;
12956;SDS011;6543;48.836;10.092;2022-10-26T11:52:12;4.77;;;2.10;;
12956;SDS011;6543;48.836;10.092;2022-10-26T11:54:43;9.90;;;2.03;;
12956;SDS011;6543;48.836;10.092;2022-10-26T11:57:17;5.83;;;2.10;;
12956;SDS011;6543;48.836;10.092;2022-10-26T11:59:46;4.57;;;1.47;;
12956;SDS011;6543;48.836;10.092;2022-10-26T12:02:17;8.03;;;2.10;;
12956;SDS011;6543;48.836;10.092;2022-10-26T12:04:48;3.57;;;2.00;;
12956;SDS011;6543;48.836;10.092;2022-10-26T12:07:20;4.57;;;2.30;;
12956;SDS011;6543;48.836;10.092;2022-10-26T12:09:51;8.47;;;2.43;;
12956;SDS011;6543;48.836;10.092;2022-10-26T12:12:22;8.68;;;2.60;;
12956;SDS011;6543;48.836;10.092;2022-10-26T12:14:56;10.87;;;2.37;;
12956;SDS011;6543;48.836;10.092;2022-10-26T12:17:30;5.50;;;2.10;;
12956;SDS011;6543;48.836;10.092;2022-10-26T12:20:04;6.37;;;2.83;;
12956;SDS011;6543;48.836;10.092;2022-10-26T12:22:38;3.33;;;1.70;;
12956;SDS011;6543;48.836;10.092;2022-10-26T12:25:17;5.30;;;1.65;;
12956;SDS011;6543;48.836;10.092;2022-10-26T12:27:51;6.90;;;1.75;;
12956;SDS011;6543;48.836;10.092;2022-10-26T12:30:27;5.40;;;1.63;;
12956;SDS011;6543;48.836;10.092;2022-10-26T12:32:56;10.23;;;2.30;;
12956;SDS011;6543;48.836;10.092;2022-10-26T12:35:29;6.87;;;2.43;;
12956;SDS011;6543;48.836;10.092;2022-10-26T12:44:30;6.43;;;2.40;;
12956;SDS011;6543;48.836;10.092;2022-10-26T12:46:57;6.13;;;2.00;;
12956;SDS011;6543;48.836;10.092;2022-10-26T12:58:17;7.10;;;2.00;;
12956;SDS011;6543;48.836;10.092;2022-10-26T13:01:09;4.67;;;2.13;;
12956;SDS011;6543;48.836;10.092;2022-10-26T13:03:55;6.00;;;2.30;;
12956;SDS011;6543;48.836;10.092;2022-10-26T13:06:37;6.83;;;2.10;;
12956;SDS011;6543;48.836;10.092;2022-10-26T13:09:15;6.50;;;2.70;;
12956;SDS011;6543;48.836;10.092;2022-10-26T13:11:46;4.67;;;2.13;;
12956;SDS011;6543;48.836;10.092;2022-10-26T13:14:18;6.07;;;2.40;;
12956;SDS011;6543;48.836;10.092;2022-10-26T13:16:49;7.90;;;2.00;;
12956;SDS011;6543;48.836;10.092;2022-10-26T13:19:22;9.60;;;3.40;;
12956;SDS011;6543;48.836;10.092;2022-10-26T13:21:51;3.97;;;2.10;;
12956;SDS011;6543;48.836;10.092;2022-10-26T13:24:19;7.80;;;2.67;;
12956;SDS011;6543;48.836;10.092;2022-10-26T13:30:19;5.33;;;1.87;;
12956;SDS011;6543;48.836;10.092;2022-10-26T13:33:02;11.60;;;2.40;;
12956;SDS011;6543;48.836;10.092;2022-10-26T13:35:33;6.28;;;2.00;;
12956;SDS011;6543;48.836;10.092;2022-10-26T13:38:00;7.40;;;2.00;;
12956;SDS011;6543;48.836;10.092;2022-10-26T13:40:34;9.20;;;2.63;;
12956;SDS011;6543;48.836;10.092;2022-10-26T13:43:03;12.45;;;2.65;;
12956;SDS011;6543;48.836;10.092;2022-10-26T13:45:33;8.10;;;3.08;;
12956;SDS011;6543;48.836;10.092;2022-10-26T13:48:10;7.30;;;3.20;;
12956;SDS011;6543;48.836;10.092;2022-10-26T13:50:44;15.65;;;2.88;;
12956;SDS011;6543;48.836;10.092;2022-10-26T13:53:14;7.30;;;2.57;;
12956;SDS011;6543;48.836;10.092;2022-10-26T13:55:47;8.80;;;2.30;;
12956;SDS011;6543;48.836;10.092;2022-10-26T13:58:18;8.90;;;3.07;;
12956;SDS011;6543;48.836;10.092;2022-10-26T14:01:00;7.03;;;2.30;;
12956;SDS011;6543;48.836;10.092;2022-10-26T14:03:30;12.82;;;3.42;;
12956;SDS011;6543;48.836;10.092;2022-10-26T14:05:57;7.13;;;2.17;;
12956;SDS011;6543;48.836;10.092;2022-10-26T14:08:24;5.10;;;2.15;;
12956;SDS011;6543;48.836;10.092;2022-10-26T14:10:52;14.43;;;2.90;;
12956;SDS011;6543;48.836;10.092;2022-10-26T14:13:22;7.80;;;2.50;;
12956;SDS011;6543;48.836;10.092;2022-10-26T14:15:50;11.37;;;2.67;;
12956;SDS011;6543;48.836;10.092;2022-10-26T14:18:18;10.18;;;2.35;;
12956;SDS011;6543;48.836;10.092;2022-10-26T14:20:51;5.60;;;2.60;;
12956;SDS011;6543;48.836;10.092;2022-10-26T14:23:33;5.90;;;2.33;;
12956;SDS011;6543;48.836;10.092;2022-10-26T14:26:01;11.77;;;2.60;;
12956;SDS011;6543;48.836;10.092;2022-10-26T14:28:28;9.17;;;2.97;;
12956;SDS011;6543;48.836;10.092;2022-10-26T14:31:12;9.38;;;2.50;;
12956;SDS011;6543;48.836;10.092;2022-10-26T14:33:45;8.55;;;3.00;;
12956;SDS011;6543;48.836;10.092;2022-10-26T14:36:14;7.07;;;2.25;;
12956;SDS011;6543;48.836;10.092;2022-10-26T14:38:43;7.65;;;2.20;;
12956;SDS011;6543;48.836;10.092;2022-10-26T14:41:12;5.68;;;2.47;;
12956;SDS011;6543;48.836;10.092;2022-10-26T14:43:42;4.40;;;1.77;;
12956;SDS011;6543;48.836;10.092;2022-10-26T14:46:11;7.78;;;2.13;;
12956;SDS011;6543;48.836;10.092;2022-10-26T14:48:40;8.10;;;2.55;;
12956;SDS011;6543;48.836;10.092;2022-10-26T14:51:18;12.70;;;2.65;;
12956;SDS011;6543;48.836;10.092;2022-10-26T14:53:47;7.17;;;2.40;;
12956;SDS011;6543;48.836;10.092;2022-10-26T14:56:21;5.00;;;2.17;;
12956;SDS011;6543;48.836;10.092;2022-10-26T14:58:52;7.70;;;2.50;;
12956;SDS011;6543;48.836;10.092;2022-10-26T15:01:24;5.90;;;2.20;;
12956;SDS011;6543;48.836;10.092;2022-10-26T15:03:58;5.47;;;2.00;;
12956;SDS011;6543;48.836;10.092;2022-10-26T15:06:37;7.13;;;2.63;;
12956;SDS011;6543;48.836;10.092;2022-10-26T15:12:02;8.03;;;2.27;;
12956;SDS011;6543;48.836;10.092;2022-10-26T15:14:30;6.03;;;2.20;;
12956;SDS011;6543;48.836;10.092;2022-10-26T15:16:59;7.32;;;2.30;;
12956;SDS011;6543;48.836;10.092;2022-10-26T15:19:26;8.67;;;2.43;;
12956;SDS011;6543;48.836;10.092;2022-10-26T15:21:55;5.77;;;2.83;;
12956;SDS011;6543;48.836;10.092;2022-10-26T15:24:26;7.00;;;2.57;;
12956;SDS011;6543;48.836;10.092;2022-10-26T15:26:57;8.77;;;2.50;;
12956;SDS011;6543;48.836;10.092;2022-10-26T15:29:34;6.57;;;2.67;;
12956;SDS011;6543;48.836;10.092;2022-10-26T15:32:16;8.50;;;2.70;;
12956;SDS011;6543;48.836;10.092;2022-10-26T15:34:47;9.67;;;2.90;;
12956;SDS011;6543;48.836;10.092;2022-10-26T15:37:16;12.00;;;2.73;;